Time;durP1;ratioP1;P1;durP2;ratioP2;P2;SDS_P1;SDS_P2;PMS_P1;PMS_P2;Temp;Humidity;BMP_temperature;BMP_pressure;BME280_temperature;BME280_humidity;BME280_pressure;Samples;Min_cycle;Max_cycle;Signal;HPM_P1;HPM_P2
2023/07/17 00:00:11;;;;;;;;;3.00;1.25;;;;;22.45;46.50;101349.94;5060419;28;45452;-75
2023/07/17 00:02:36;;;;;;;;;1.25;1.25;;;;;22.57;46.91;101376.25;5039905;28;46539;-75
2023/07/17 00:05:02;;;;;;;;;1.00;1.00;;;;;22.63;46.74;101385.81;5061151;28;45387;-75
2023/07/17 00:07:28;;;;;;;;;3.00;2.00;;;;;22.53;46.44;101369.28;5056425;28;45387;-75
2023/07/17 00:09:53;;;;;;;;;4.00;2.00;;;;;22.45;47.00;101353.50;5061470;28;45540;-75
2023/07/17 00:12:18;;;;;;;;;1.00;1.00;;;;;22.61;46.62;101387.78;5060793;28;46572;-75
2023/07/17 00:14:44;;;;;;;;;1.75;1.75;;;;;22.42;46.77;101359.19;5043449;28;45693;-75
2023/07/17 00:17:09;;;;;;;;;1.00;1.00;;;;;22.56;46.86;101388.09;5060408;28;45464;-75
2023/07/17 00:19:38;;;;;;;;;2.25;1.00;;;;;22.35;46.80;101358.78;5043296;28;45773;-75
2023/07/17 00:22:03;;;;;;;;;2.00;2.00;;;;;22.32;46.82;101350.84;5042484;28;47915;-75
2023/07/17 00:24:28;;;;;;;;;1.50;1.50;;;;;22.49;47.33;101382.25;5060420;28;45383;-75
2023/07/17 00:26:54;;;;;;;;;1.75;1.00;;;;;22.43;46.53;101369.06;5048373;28;45343;-75
2023/07/17 00:29:25;;;;;;;;;1.75;1.75;;;;;22.50;46.99;101386.72;5042518;28;48388;-75
2023/07/17 00:31:51;;;;;;;;;4.00;2.50;;;;;22.33;47.34;101355.28;5038687;28;46479;-75
2023/07/17 00:34:18;;;;;;;;;1.50;1.00;;;;;22.45;47.24;101372.53;5042640;28;45575;-75
2023/07/17 00:36:44;;;;;;;;;1.25;1.25;;;;;22.29;47.80;101350.19;5052569;28;45483;-75
2023/07/17 00:39:10;;;;;;;;;4.00;3.50;;;;;22.48;47.44;101382.34;5060941;28;45546;-75
2023/07/17 00:41:35;;;;;;;;;3.75;2.00;;;;;22.46;48.26;101385.19;5052324;28;45590;-75
2023/07/17 00:44:01;;;;;;;;;2.00;1.50;;;;;22.25;48.14;101357.63;5042443;28;45406;-75
2023/07/17 00:46:26;;;;;;;;;1.75;1.50;;;;;22.25;47.78;101354.91;5054177;28;45266;-75
2023/07/17 00:48:52;;;;;;;;;5.00;3.00;;;;;22.36;48.42;101379.53;5042318;28;45733;-75
2023/07/17 00:51:17;;;;;;;;;1.50;1.50;;;;;22.18;48.45;101359.06;5056462;28;46041;-75
2023/07/17 00:53:43;;;;;;;;;2.00;2.00;;;;;22.16;48.15;101361.03;5060790;28;45357;-75
2023/07/17 00:56:09;;;;;;;;;2.00;2.00;;;;;22.15;48.51;101368.34;5042283;28;45497;-75
2023/07/17 00:58:36;;;;;;;;;1.00;1.00;;;;;22.33;48.29;101389.75;5060883;28;45398;-75
2023/07/17 01:01:03;;;;;;;;;4.50;2.75;;;;;22.33;48.58;101397.94;5039109;28;45881;-75
2023/07/17 01:03:29;;;;;;;;;3.25;3.00;;;;;22.31;48.43;101402.59;5060529;28;45571;-75
2023/07/17 01:05:56;;;;;;;;;2.00;2.00;;;;;22.08;48.98;101367.00;5041461;28;45520;-75
2023/07/17 01:08:22;;;;;;;;;3.25;2.25;;;;;22.05;48.84;101364.50;5060666;28;45433;-75
2023/07/17 01:10:48;;;;;;;;;1.75;1.75;;;;;22.11;48.73;101374.09;5057099;28;46192;-75
2023/07/17 01:13:14;;;;;;;;;2.00;2.00;;;;;22.16;49.11;101394.53;5041980;28;45399;-75
2023/07/17 01:15:39;;;;;;;;;1.50;1.25;;;;;22.15;49.05;101397.34;5042124;28;45380;-75
2023/07/17 01:18:04;;;;;;;;;1.25;1.25;;;;;22.19;48.91;101410.63;5042174;28;45449;-75
2023/07/17 01:20:30;;;;;;;;;2.00;2.00;;;;;22.18;48.79;101402.56;5059769;28;45570;-75
2023/07/17 01:23:01;;;;;;;;;2.00;2.00;;;;;22.07;48.83;101395.19;5041981;28;45362;-75
2023/07/17 01:25:26;;;;;;;;;2.25;2.00;;;;;21.95;49.26;101380.63;5041995;28;45412;-75
2023/07/17 01:27:52;;;;;;;;;1.00;1.00;;;;;21.94;48.77;101381.59;5041357;28;45912;-75
2023/07/17 01:30:17;;;;;;;;;2.00;2.00;;;;;21.99;48.90;101389.41;5059977;28;45398;-74
2023/07/17 01:32:43;;;;;;;;;2.75;1.00;;;;;22.07;48.86;101403.34;5052190;28;45364;-75
2023/07/17 01:35:08;;;;;;;;;3.50;2.00;;;;;22.10;48.94;101414.00;5060174;28;45550;-75
2023/07/17 01:37:34;;;;;;;;;3.00;3.00;;;;;21.73;49.42;101354.06;5035504;28;45549;-75
2023/07/17 01:39:59;;;;;;;;;3.00;3.00;;;;;22.01;49.26;101401.91;5059915;28;45335;-75
2023/07/17 01:42:24;;;;;;;;;3.00;3.00;;;;;21.69;49.84;101357.97;5041745;28;45703;-75
2023/07/17 01:44:50;;;;;;;;;3.75;3.00;;;;;21.79;49.52;101382.66;5028733;28;45498;-75
2023/07/17 01:47:15;;;;;;;;;3.00;3.00;;;;;21.90;49.96;101406.34;5041511;28;45560;-75
2023/07/17 01:49:41;;;;;;;;;3.00;3.00;;;;;21.78;50.25;101392.63;5059485;28;45638;-75
2023/07/17 01:52:08;;;;;;;;;4.00;3.00;;;;;21.70;50.57;101383.28;5058024;28;45394;-75
2023/07/17 01:54:34;;;;;;;;;2.00;2.00;;;;;21.87;49.90;101428.31;5041538;28;45376;-75
2023/07/17 01:56:59;;;;;;;;;3.50;3.00;;;;;21.68;50.21;101398.84;5023400;28;45667;-75
2023/07/17 01:59:25;;;;;;;;;3.00;3.00;;;;;21.68;50.63;101398.84;5059681;28;45292;-75
2023/07/17 02:01:50;;;;;;;;;4.00;4.00;;;;;21.59;50.59;101394.91;5032032;28;45519;-75
2023/07/17 02:04:15;;;;;;;;;3.50;3.00;;;;;21.55;51.14;101394.25;5056445;28;45330;-75
2023/07/17 02:06:41;;;;;;;;;3.25;2.00;;;;;21.65;51.40;101419.81;5059538;28;45599;-75
2023/07/17 02:09:06;;;;;;;;;2.00;2.00;;;;;21.49;51.09;101397.38;5059368;28;45298;-75
2023/07/17 02:11:32;;;;;;;;;2.00;2.00;;;;;21.38;51.19;101389.91;5059167;28;45418;-75
2023/07/17 02:13:58;;;;;;;;;3.25;1.75;;;;;21.59;51.81;101419.34;5040228;28;45353;-75
2023/07/17 02:16:23;;;;;;;;;4.25;3.00;;;;;21.57;51.23;101424.88;5055227;28;45416;-75
2023/07/17 02:18:49;;;;;;;;;5.00;3.50;;;;;21.55;51.82;101420.53;5054703;28;45439;-75
2023/07/17 02:21:14;;;;;;;;;4.00;3.25;;;;;21.56;51.79;101428.56;5040883;28;45466;-75
2023/07/17 02:23:39;;;;;;;;;3.00;2.00;;;;;21.28;52.12;101386.09;5041152;28;45448;-75
2023/07/17 02:26:06;;;;;;;;;4.00;3.00;;;;;21.51;52.06;101432.59;5058749;28;45649;-75
2023/07/17 02:28:32;;;;;;;;;3.25;3.25;;;;;21.36;51.91;101416.31;5058866;28;45409;-75
2023/07/17 02:30:57;;;;;;;;;5.00;4.00;;;;;21.21;52.31;101392.91;5059346;28;45546;-75
2023/07/17 02:33:23;;;;;;;;;4.25;3.00;;;;;21.25;52.31;101405.28;5059130;28;45673;-75
2023/07/17 02:35:48;;;;;;;;;5.25;3.25;;;;;21.20;51.98;101402.00;5041060;28;45288;-75
2023/07/17 02:38:13;;;;;;;;;4.50;3.50;;;;;21.28;52.14;101421.38;5057019;28;45411;-75
2023/07/17 02:40:39;;;;;;;;;3.50;3.25;;;;;21.10;52.50;101399.94;5040436;28;45596;-75
2023/07/17 02:43:06;;;;;;;;;3.00;3.00;;;;;21.32;52.07;101435.63;5059080;28;45349;-75
2023/07/17 02:45:31;;;;;;;;;2.00;2.00;;;;;21.09;52.12;101400.88;5059292;28;45257;-75
2023/07/17 02:47:56;;;;;;;;;3.00;3.00;;;;;;;;5058664;28;46554;-75
2023/07/17 02:50:22;;;;;;;;;2.00;2.00;;;;;21.08;52.18;101415.44;5058905;28;45356;-75
2023/07/17 02:52:47;;;;;;;;;2.25;2.25;;;;;21.24;52.55;101442.44;5058944;28;45212;-75
2023/07/17 02:55:13;;;;;;;;;2.00;2.00;;;;;21.19;51.84;101436.44;5058834;28;45253;-75
2023/07/17 02:57:38;;;;;;;;;2.25;2.00;;;;;21.23;51.77;101447.97;5057156;28;46070;-75
2023/07/17 03:00:14;;;;;;;;;1.75;1.75;;;;;21.23;52.03;101453.41;5058944;28;45674;-75
2023/07/17 03:02:41;;;;;;;;;2.00;2.00;;;;;21.04;51.87;101421.19;5050567;28;45454;-75
2023/07/17 03:05:09;;;;;;;;;2.00;2.00;;;;;21.19;51.94;101449.16;5040663;28;45629;-75
2023/07/17 03:07:37;;;;;;;;;2.00;2.00;;;;;21.18;52.25;101445.53;5063245;28;45659;-75
2023/07/17 03:10:02;;;;;;;;;1.50;1.50;;;;;21.17;51.93;101440.25;5065383;28;45464;-75
2023/07/17 03:12:28;;;;;;;;;2.75;2.75;;;;;21.13;51.99;101441.41;5039492;28;45523;-74
2023/07/17 03:14:53;;;;;;;;;2.75;2.00;;;;;21.14;52.45;101444.03;5065626;28;45411;-75
2023/07/17 03:17:18;;;;;;;;;1.50;1.50;;;;;21.04;52.14;101432.03;5059369;28;46433;-74
2023/07/17 03:19:44;;;;;;;;;2.50;2.00;;;;;21.07;51.98;101435.41;5065414;28;45461;-74
2023/07/17 03:22:09;;;;;;;;;3.00;2.50;;;;;21.01;51.81;101429.50;5042526;28;45485;-74
2023/07/17 03:24:35;;;;;;;;;3.00;2.00;;;;;20.96;52.64;101428.94;5043493;28;45489;-74
2023/07/17 03:27:00;;;;;;;;;0.00;0.00;;;;;20.85;51.96;101425.09;5060491;28;45869;-74
2023/07/17 03:29:26;;;;;;;;;2.75;1.25;;;;;20.99;52.37;101445.03;5065502;28;45474;-74
2023/07/17 03:31:52;;;;;;;;;1.25;1.25;;;;;20.84;52.31;101423.34;5045436;28;45457;-75
2023/07/17 03:34:17;;;;;;;;;0.50;0.50;;;;;20.80;52.52;101423.63;5047133;28;45985;-74
2023/07/17 03:36:42;;;;;;;;;2.50;2.50;;;;;20.72;52.60;101419.56;5061388;28;46089;-75
2023/07/17 03:39:08;;;;;;;;;2.00;2.00;;;;;20.92;52.54;101455.41;5046914;28;45729;-74
2023/07/17 03:41:33;;;;;;;;;2.00;2.00;;;;;20.86;52.49;101450.38;5063791;28;45478;-74
2023/07/17 03:44:01;;;;;;;;;2.75;1.75;;;;;20.92;52.85;101468.97;5053985;28;45308;-74
2023/07/17 03:46:27;;;;;;;;;4.00;2.00;;;;;20.71;52.58;101444.97;5064886;28;46353;-74
2023/07/17 03:48:52;;;;;;;;;2.00;2.00;;;;;20.87;52.91;101473.84;5063407;28;45925;-74
2023/07/17 03:51:17;;;;;;;;;1.25;1.25;;;;;20.65;52.73;101441.78;5065099;28;45321;-74
2023/07/17 03:53:43;;;;;;;;;3.75;3.00;;;;;20.57;52.80;101428.66;5055465;28;45265;-74
2023/07/17 03:56:08;;;;;;;;;4.25;2.75;;;;;20.64;52.78;101445.47;5063558;28;52937;-74
2023/07/17 03:58:33;;;;;;;;;3.00;3.00;;;;;20.54;53.01;101448.72;5046713;28;45655;-74
2023/07/17 04:00:59;;;;;;;;;2.25;2.00;;;;;20.53;52.91;101452.41;5046692;28;45580;-74
2023/07/17 04:03:24;;;;;;;;;2.25;1.50;;;;;20.42;53.07;101441.34;5040530;28;45489;-74
2023/07/17 04:05:49;;;;;;;;;2.00;2.00;;;;;20.51;53.04;101454.34;5043676;28;46443;-74
2023/07/17 04:08:15;;;;;;;;;5.25;3.00;;;;;20.59;52.79;101471.97;5058907;28;45407;-74
2023/07/17 04:10:40;;;;;;;;;2.00;2.00;;;;;20.61;53.31;101479.03;5064462;28;45601;-74
2023/07/17 04:13:05;;;;;;;;;2.50;2.00;;;;;20.58;52.95;101472.94;5046038;28;45595;-74
2023/07/17 04:15:31;;;;;;;;;1.00;1.00;;;;;20.55;53.11;101474.88;5064516;28;45431;-74
2023/07/17 04:17:56;;;;;;;;;3.00;2.00;;;;;20.59;53.11;101485.53;5038558;28;45498;-74
2023/07/17 04:20:22;;;;;;;;;3.25;2.00;;;;;20.44;53.51;101466.53;5037265;28;45471;-74
2023/07/17 04:22:47;;;;;;;;;4.00;2.00;;;;;20.35;53.46;101464.41;5059404;28;45446;-74
2023/07/17 04:25:12;;;;;;;;;3.00;3.00;;;;;20.29;53.56;101457.50;5060768;28;50230;-74
2023/07/17 04:27:37;;;;;;;;;2.00;2.00;;;;;20.24;53.55;101450.66;5060461;28;45674;-74
2023/07/17 04:30:04;;;;;;;;;1.50;1.00;;;;;20.47;53.48;101495.31;5043020;28;45674;-74
2023/07/17 04:32:29;;;;;;;;;2.00;2.00;;;;;20.43;53.20;101494.63;5058440;28;45355;-74
2023/07/17 04:34:56;;;;;;;;;1.25;1.25;;;;;20.45;53.14;101500.81;5036935;28;47319;-74
2023/07/17 04:37:21;;;;;;;;;3.25;2.00;;;;;20.26;53.14;101475.81;5042989;28;45954;-74
2023/07/17 04:39:47;;;;;;;;;1.00;1.00;;;;;20.34;53.40;101484.34;5060935;28;45363;-74
2023/07/17 04:42:13;;;;;;;;;2.00;2.00;;;;;20.38;53.06;101491.34;5039543;28;45526;-74
2023/07/17 04:44:38;;;;;;;;;0.75;0.75;;;;;20.19;53.65;101469.91;5038530;28;47011;-74
2023/07/17 04:47:04;;;;;;;;;2.00;2.00;;;;;20.22;52.88;101482.41;5042430;28;45434;-74
2023/07/17 04:49:29;;;;;;;;;1.25;1.25;;;;;20.20;53.19;101482.50;5042814;28;45350;-74
2023/07/17 04:51:54;;;;;;;;;2.00;1.00;;;;;20.27;52.94;101489.28;5060917;28;45351;-74
2023/07/17 04:54:20;;;;;;;;;2.00;2.00;;;;;20.30;53.34;101501.78;5034661;28;55382;-74
2023/07/17 04:56:45;;;;;;;;;1.25;1.25;;;;;20.32;53.11;101510.69;5059437;28;45462;-74
2023/07/17 04:59:11;;;;;;;;;1.75;1.75;;;;;20.21;53.22;101497.78;5056422;28;45514;-74
2023/07/17 05:01:36;;;;;;;;;1.00;1.00;;;;;20.25;53.17;101509.31;5060592;28;45462;-74
2023/07/17 05:04:01;;;;;;;;;1.00;1.00;;;;;20.02;53.37;101472.78;5026769;28;47121;-74
2023/07/17 05:06:29;;;;;;;;;1.00;1.00;;;;;20.11;53.38;101502.91;5042416;28;45780;-74
2023/07/17 05:08:54;;;;;;;;;1.00;1.00;;;;;19.94;53.09;101482.22;5039472;28;45369;-74
2023/07/17 05:11:19;;;;;;;;;1.00;1.00;;;;;19.91;53.09;101479.72;5060260;28;45433;-74
2023/07/17 05:13:45;;;;;;;;;2.00;1.00;;;;;20.04;53.33;101509.63;5041168;28;47594;-74
2023/07/17 05:16:10;;;;;;;;;2.00;0.50;;;;;20.00;53.47;101505.38;5060345;28;45318;-74
2023/07/17 05:18:35;;;;;;;;;2.00;2.00;;;;;20.07;53.49;101520.31;5047743;28;45381;-74
2023/07/17 05:21:01;;;;;;;;;3.00;2.00;;;;;19.97;53.58;101497.44;5041983;28;45603;-74
2023/07/17 05:23:26;;;;;;;;;3.00;3.00;;;;;19.81;53.70;101486.63;5048993;28;45419;-74
2023/07/17 05:25:54;;;;;;;;;1.00;1.00;;;;;20.01;53.54;101525.22;5041134;28;45728;-74
2023/07/17 05:28:19;;;;;;;;;2.25;1.00;;;;;19.80;53.58;101496.59;5041887;28;45483;-74
2023/07/17 05:30:45;;;;;;;;;1.00;1.00;;;;;19.80;53.62;101503.84;5040860;28;45602;-74
2023/07/17 05:33:11;;;;;;;;;2.00;2.00;;;;;19.80;53.59;101493.88;5059712;28;46280;-74
2023/07/17 05:35:37;;;;;;;;;2.00;2.00;;;;;19.76;53.70;101480.59;5060261;28;45434;-74
2023/07/17 05:38:03;;;;;;;;;1.00;0.50;;;;;19.83;53.63;101509.09;5059413;28;45377;-74
2023/07/17 05:40:28;;;;;;;;;1.25;1.25;;;;;19.96;53.49;101534.50;5039367;28;45634;-74
2023/07/17 05:42:54;;;;;;;;;1.00;1.00;;;;;19.83;53.55;101508.22;5054356;28;45593;-72
2023/07/17 05:45:19;;;;;;;;;4.00;1.00;;;;;19.80;53.55;101514.69;5056641;28;45419;-73
2023/07/17 05:47:44;;;;;;;;;2.25;1.00;;;;;19.73;53.62;101500.59;5051198;28;45424;-74
2023/07/17 05:50:11;;;;;;;;;2.50;1.00;;;;;19.72;53.56;101506.13;5054000;28;45555;-73
2023/07/17 05:52:36;;;;;;;;;2.75;1.00;;;;;19.86;53.59;101538.69;5059081;28;46198;-73
2023/07/17 05:55:03;;;;;;;;;1.75;1.75;;;;;19.69;53.87;101496.31;5058309;28;45475;-73
2023/07/17 05:57:28;;;;;;;;;1.00;1.00;;;;;19.87;53.67;101529.63;5047953;28;45408;-73
2023/07/17 05:59:53;;;;;;;;;1.00;1.00;;;;;19.95;53.78;101548.16;5040386;28;45694;-73
2023/07/17 06:02:19;;;;;;;;;1.25;1.25;;;;;19.83;54.11;101528.06;5040937;28;47307;-74
2023/07/17 06:04:45;;;;;;;;;1.50;1.50;;;;;19.93;53.57;101559.06;5034975;28;45462;-77
2023/07/17 06:07:10;;;;;;;;;2.25;2.25;;;;;19.86;54.14;101543.25;5058765;28;45378;-76
2023/07/17 06:09:35;;;;;;;;;1.00;1.00;;;;;19.82;54.27;101544.41;5057805;28;45458;-76
2023/07/17 06:12:02;;;;;;;;;3.00;1.00;;;;;19.85;54.01;101549.66;5050068;28;45950;-76
2023/07/17 06:14:27;;;;;;;;;1.00;1.00;;;;;19.94;54.52;101560.78;5057040;28;45465;-76
2023/07/17 06:16:52;;;;;;;;;1.00;1.00;;;;;19.97;54.29;101568.75;5041407;28;45650;-75
2023/07/17 06:19:18;;;;;;;;;0.75;0.75;;;;;19.89;54.20;101554.78;5057713;28;45390;-77
2023/07/17 06:21:44;;;;;;;;;0.75;0.75;;;;;20.03;54.24;101569.34;5059307;28;45311;-77
2023/07/17 06:24:09;;;;;;;;;1.00;1.00;;;;;20.03;54.16;101563.94;5036782;28;45416;-77
2023/07/17 06:26:36;;;;;;;;;2.25;1.00;;;;;20.02;54.07;101556.78;5047881;28;45718;-76
2023/07/17 06:29:02;;;;;;;;;2.00;1.75;;;;;20.11;54.04;101567.94;5055378;28;45520;-76
2023/07/17 06:31:28;;;;;;;;;1.00;1.00;;;;;20.12;54.32;101568.81;5055385;28;48958;-76
2023/07/17 06:33:53;;;;;;;;;1.00;1.00;;;;;20.06;53.84;101545.66;5058501;28;45421;-75
2023/07/17 06:36:18;;;;;;;;;1.00;1.00;;;;;20.19;53.75;101572.91;5033629;28;45615;-75
2023/07/17 06:38:44;;;;;;;;;1.00;1.00;;;;;20.07;53.71;101541.13;5053372;28;45498;-76
2023/07/17 06:41:09;;;;;;;;;1.00;1.00;;;;;20.20;53.50;101558.41;5058439;28;45370;-76
2023/07/17 06:43:34;;;;;;;;;1.25;1.00;;;;;20.15;53.95;101546.97;5056640;28;51936;-77
2023/07/17 06:46:00;;;;;;;;;2.00;2.00;;;;;20.26;53.86;101566.13;5052381;28;45447;-78
2023/07/17 06:48:25;;;;;;;;;2.25;1.25;;;;;20.09;53.21;101536.47;5037100;28;46141;-74
2023/07/17 06:50:50;;;;;;;;;1.25;1.25;;;;;20.36;53.82;101580.91;5056130;28;46291;-74
2023/07/17 06:53:16;;;;;;;;;3.00;0.50;;;;;20.34;54.05;101565.69;5055448;28;45446;-75
2023/07/17 06:55:42;;;;;;;;;2.75;1.00;;;;;20.35;53.60;101565.59;5057932;28;45509;-75
2023/07/17 06:58:07;;;;;;;;;1.00;1.00;;;;;20.46;53.75;101586.63;5058684;28;45407;-75
2023/07/17 07:00:33;;;;;;;;;1.00;1.00;;;;;20.38;53.54;101563.66;5040403;28;47181;-75
2023/07/17 07:02:58;;;;;;;;;1.25;1.25;;;;;20.48;53.14;101587.44;5056092;28;45359;-74
2023/07/17 07:05:23;;;;;;;;;3.25;1.00;;;;;20.41;52.87;101564.34;5051722;28;45531;-75
2023/07/17 07:07:49;;;;;;;;;1.25;1.25;;;;;20.55;53.04;101582.50;5056597;28;47354;-75
2023/07/17 07:10:14;;;;;;;;;1.00;1.00;;;;;20.57;52.98;101579.69;5032784;28;58079;-74
2023/07/17 07:12:39;;;;;;;;;1.50;1.00;;;;;20.64;53.06;101587.38;5052158;28;45293;-74
2023/07/17 07:15:06;;;;;;;;;1.75;1.75;;;;;20.59;52.79;101575.03;5057263;28;45606;-75
2023/07/17 07:17:32;;;;;;;;;1.75;1.50;;;;;20.71;52.73;101591.47;5054591;28;45377;-75
2023/07/17 07:19:57;;;;;;;;;2.00;1.00;;;;;20.71;52.76;101586.06;5057109;28;46307;-75
2023/07/17 07:22:22;;;;;;;;;1.00;1.00;;;;;20.70;52.50;101578.88;5051790;28;45249;-74
2023/07/17 07:24:48;;;;;;;;;3.00;2.00;;;;;20.69;52.26;101577.13;5034972;28;45447;-74
2023/07/17 07:27:13;;;;;;;;;3.00;2.00;;;;;20.72;52.26;101579.63;5047577;28;51109;-76
2023/07/17 07:29:39;;;;;;;;;1.00;1.00;;;;;20.74;52.21;101582.25;5045365;28;47219;-78
2023/07/17 07:32:04;;;;;;;;;3.50;2.00;;;;;20.85;52.05;101597.88;5050405;28;45428;-82
2023/07/17 07:34:30;;;;;;;;;1.75;1.75;;;;;20.89;51.29;101607.56;5056726;28;45552;-83
2023/07/17 07:36:55;;;;;;;;;1.00;0.00;;;;;20.82;52.04;101598.94;5056883;28;45518;-77
2023/07/17 07:39:21;;;;;;;;;1.00;1.00;;;;;20.80;51.84;101579.19;5023732;28;47198;-72
2023/07/17 07:41:46;;;;;;;;;3.00;1.00;;;;;20.73;51.62;101558.78;5048964;28;45734;-73
2023/07/17 07:44:11;;;;;;;;;1.50;1.00;;;;;20.93;51.84;101600.97;5050313;28;45431;-72
2023/07/17 07:46:36;;;;;;;;;2.00;1.00;;;;;20.96;51.64;101592.63;5032867;28;45506;-69
2023/07/17 07:49:03;;;;;;;;;0.75;0.50;;;;;21.01;51.05;101601.38;5057588;28;46097;-72
2023/07/17 07:51:28;;;;;;;;;1.00;1.00;;;;;21.03;50.93;101593.13;5056636;28;45457;-72
2023/07/17 07:53:54;;;;;;;;;1.50;1.50;;;;;20.86;51.49;101561.63;5046449;28;45432;-70
2023/07/17 07:56:19;;;;;;;;;2.00;1.00;;;;;21.10;50.84;101595.38;5061257;28;45519;-69
2023/07/17 07:58:47;;;;;;;;;1.00;1.00;;;;;21.17;51.16;101597.72;5050402;28;46268;-77
2023/07/17 08:01:12;;;;;;;;;1.00;1.00;;;;;21.27;51.19;101607.00;5060070;28;45376;-75
2023/07/17 08:03:40;;;;;;;;;3.75;2.75;;;;;21.35;50.94;101625.50;5057336;28;45363;-74
2023/07/17 08:06:05;;;;;;;;;2.75;1.75;;;;;21.37;50.43;101616.31;5061039;28;45497;-71
2023/07/17 08:08:31;;;;;;;;;1.50;1.00;;;;;21.42;49.95;101624.16;5060440;28;46308;-73
2023/07/17 08:10:56;;;;;;;;;2.50;1.00;;;;;21.23;49.55;101583.72;5059300;28;45591;-73
2023/07/17 08:13:21;;;;;;;;;1.00;1.00;;;;;21.33;49.88;101600.28;5027990;28;45523;-72
2023/07/17 08:15:47;;;;;;;;;3.00;1.00;;;;;21.31;49.64;101589.53;5058324;28;45486;-70
2023/07/17 08:18:13;;;;;;;;;2.75;1.00;;;;;21.54;49.43;101626.09;5060172;28;45490;-73
2023/07/17 08:20:38;;;;;;;;;6.75;3.75;;;;;21.54;49.31;101630.69;5060034;28;45324;-73
2023/07/17 08:23:04;;;;;;;;;4.00;1.00;;;;;21.62;49.09;101625.63;5059091;28;45671;-73
2023/07/17 08:25:29;;;;;;;;;4.75;2.00;;;;;21.59;49.66;101618.53;5060182;28;45547;-73
2023/07/17 08:27:54;;;;;;;;;3.75;1.75;;;;;21.71;49.21;101626.88;5031309;28;48336;-72
2023/07/17 08:30:20;;;;;;;;;3.25;2.25;;;;;21.74;49.00;101627.53;5040727;28;45408;-72
2023/07/17 08:32:46;;;;;;;;;2.00;1.25;;;;;21.76;49.14;101622.00;5052739;28;45469;-72
2023/07/17 08:35:11;;;;;;;;;2.50;1.00;;;;;21.79;48.79;101621.78;5058476;28;45386;-72
2023/07/17 08:37:36;;;;;;;;;2.00;2.00;;;;;21.91;48.68;101640.00;5059496;28;46199;-72
2023/07/17 08:40:03;;;;;;;;;3.75;1.75;;;;;21.92;48.73;101630.00;5059594;28;45498;-72
2023/07/17 08:42:29;;;;;;;;;2.00;2.00;;;;;21.99;48.99;101631.34;5050174;28;45527;-72
2023/07/17 08:44:57;;;;;;;;;1.75;1.25;;;;;21.92;48.33;101616.41;5040055;28;45439;-72
2023/07/17 08:47:23;;;;;;;;;2.25;1.75;;;;;21.93;47.92;101608.16;5040229;28;47570;-72
2023/07/17 08:49:51;;;;;;;;;1.00;1.00;;;;;22.04;48.25;101618.31;5059803;28;45348;-70
2023/07/17 08:52:17;;;;;;;;;2.00;2.00;;;;;22.14;48.11;101626.75;5057161;28;45515;-70
2023/07/17 08:54:43;;;;;;;;;2.00;2.00;;;;;22.10;48.39;101622.47;5049364;28;45415;-69
2023/07/17 08:57:09;;;;;;;;;1.00;1.00;;;;;22.14;47.90;101624.00;5042249;28;47440;-71
2023/07/17 08:59:36;;;;;;;;;0.00;0.00;;;;;22.13;47.47;101617.69;5038694;28;45407;-70
2023/07/17 09:02:03;;;;;;;;;3.00;1.25;;;;;22.19;47.66;101621.84;5041500;28;45386;-70
2023/07/17 09:04:31;;;;;;;;;0.75;0.75;;;;;22.23;47.07;101626.09;5041246;28;45536;-70
2023/07/17 09:06:56;;;;;;;;;3.25;2.00;;;;;22.15;47.52;101612.16;5060124;28;45549;-70
2023/07/17 09:09:21;;;;;;;;;1.25;1.25;;;;;22.24;47.20;101622.41;5056140;28;45540;-70
2023/07/17 09:12:05;;;;;;;;;1.25;1.25;;;;;22.31;47.25;101631.94;5058547;28;45545;-70
2023/07/17 09:14:30;;;;;;;;;0.75;0.75;;;;;22.37;47.18;101630.66;5059760;28;45466;-70
2023/07/17 09:17:01;;;;;;;;;3.00;1.00;;;;;22.33;47.25;101619.09;5057728;28;46935;-70
2023/07/17 09:19:34;;;;;;;;;1.75;1.75;;;;;22.46;47.31;101634.59;5058941;28;45581;-70
2023/07/17 09:22:04;;;;;;;;;2.25;1.25;;;;;22.32;46.77;101597.44;5058554;28;45527;-70
2023/07/17 09:24:33;;;;;;;;;0.25;0.25;;;;;22.53;47.50;101630.47;5053957;28;45391;-70
2023/07/17 09:26:58;;;;;;;;;2.00;2.00;;;;;22.62;46.73;101639.81;5058917;28;46186;-70
2023/07/17 09:29:24;;;;;;;;;2.00;2.00;;;;;22.65;46.91;101643.19;5059580;28;45707;-70
2023/07/17 09:31:50;;;;;;;;;1.75;1.25;;;;;22.69;46.59;101635.72;5041644;28;45608;-70
2023/07/17 09:34:16;;;;;;;;;3.25;1.25;;;;;22.61;46.57;101625.34;5040443;28;47728;-70
2023/07/17 09:36:41;;;;;;;;;1.00;1.00;;;;;22.57;46.11;101611.09;5057412;28;46026;-70
2023/07/17 09:39:07;;;;;;;;;2.00;2.00;;;;;22.76;46.23;101639.75;5050486;28;45459;-70
2023/07/17 09:41:33;;;;;;;;;2.00;0.00;;;;;22.66;46.08;101625.91;5040869;28;45726;-70
2023/07/17 09:44:04;;;;;;;;;1.00;1.00;;;;;22.79;46.33;101635.94;5048034;28;45423;-70
2023/07/17 09:46:32;;;;;;;;;0.00;0.00;;;;;22.88;46.12;101638.03;5043235;28;46887;-70
2023/07/17 09:48:58;;;;;;;;;1.00;0.25;;;;;22.80;45.99;101624.06;5032243;28;45329;-70
2023/07/17 09:51:24;;;;;;;;;5.00;2.25;;;;;22.88;45.97;101624.41;5041737;28;45421;-70
2023/07/17 09:53:50;;;;;;;;;3.00;1.00;;;;;22.89;46.14;101627.03;5033274;28;45753;-70
2023/07/17 09:56:18;;;;;;;;;1.00;1.00;;;;;22.93;45.30;101628.53;5043061;28;48726;-70
2023/07/17 09:58:48;;;;;;;;;3.00;1.50;;;;;23.01;45.45;101630.72;5056942;28;45747;-70
2023/07/17 10:01:17;;;;;;;;;0.00;0.00;;;;;23.08;45.08;101634.78;5057661;28;45448;-70
2023/07/17 10:03:47;;;;;;;;;0.00;0.00;;;;;23.13;44.82;101634.47;5056481;28;45612;-70
2023/07/17 10:06:15;;;;;;;;;0.00;0.00;;;;;22.98;44.68;101608.31;5056334;28;45560;-70
2023/07/17 10:08:44;;;;;;;;;1.00;1.00;;;;;22.86;44.62;101594.56;5049309;28;45672;-70
2023/07/17 10:11:09;;;;;;;;;2.50;1.00;;;;;23.15;44.55;101632.50;5052155;28;45548;-74
2023/07/17 10:13:35;;;;;;;;;0.00;0.00;;;;;22.96;44.31;101588.47;5056209;28;45408;-74
2023/07/17 10:16:01;;;;;;;;;2.00;1.00;;;;;23.24;44.31;101636.44;5050971;28;45497;-74
2023/07/17 10:18:26;;;;;;;;;0.75;0.75;;;;;22.90;43.73;101587.94;5056457;28;45743;-74
2023/07/17 10:20:53;;;;;;;;;0.25;0.25;;;;;23.25;44.06;101627.25;5055824;28;45764;-74
2023/07/17 10:23:24;;;;;;;;;1.00;1.00;;;;;23.27;44.05;101625.28;5035140;28;45812;-74
2023/07/17 10:25:50;;;;;;;;;0.25;0.25;;;;;23.10;44.40;101591.09;5046525;28;45844;-74
2023/07/17 10:28:29;;;;;;;;;0.25;0.25;;;;;23.29;43.99;101626.94;5058850;28;45910;-75
2023/07/17 10:30:54;;;;;;;;;0.25;0.25;;;;;23.28;43.58;101622.47;5040669;28;45438;-69
2023/07/17 10:33:22;;;;;;;;;0.75;0.75;;;;;23.39;43.72;101634.41;5056665;28;45376;-69
2023/07/17 10:35:58;;;;;;;;;0.50;0.50;;;;;23.34;43.34;101620.25;5058935;28;45418;-69
2023/07/17 10:38:24;;;;;;;;;2.00;1.25;;;;;23.35;43.53;101619.28;5038087;28;45873;-70
2023/07/17 10:41:00;;;;;;;;;0.25;0.25;;;;;23.34;43.47;101623.00;5035591;28;45467;-70
2023/07/17 10:43:26;;;;;;;;;1.00;1.00;;;;;23.46;43.59;101630.28;5057839;28;45748;-69
2023/07/17 10:45:51;;;;;;;;;0.25;0.25;;;;;23.27;43.13;101596.22;5057758;28;46709;-70
2023/07/17 10:48:18;;;;;;;;;1.25;1.25;;;;;23.36;43.24;101615.59;5057948;28;45635;-70
2023/07/17 10:50:51;;;;;;;;;1.75;1.00;;;;;23.42;42.99;101628.75;5058695;28;45366;-70
2023/07/17 10:53:17;;;;;;;;;1.00;1.00;;;;;23.51;42.66;101635.41;5057973;28;45791;-70
2023/07/17 10:55:43;;;;;;;;;1.75;1.00;;;;;23.42;42.57;101618.75;5058829;28;46210;-70
2023/07/17 10:58:08;;;;;;;;;1.00;1.00;;;;;23.52;42.91;101624.38;5040828;28;46035;-70
2023/07/17 11:00:34;;;;;;;;;0.00;0.00;;;;;23.51;42.91;101625.38;5058998;28;45414;-70
2023/07/17 11:03:00;;;;;;;;;0.75;0.75;;;;;23.64;42.61;101636.25;5040548;28;46261;-70
2023/07/17 11:05:26;;;;;;;;;0.00;0.00;;;;;23.62;41.77;101628.19;5049253;28;46111;-70
2023/07/17 11:07:51;;;;;;;;;0.50;0.25;;;;;23.67;41.66;101627.81;5037513;28;45290;-70
2023/07/17 11:10:17;;;;;;;;;1.25;0.00;;;;;23.74;41.09;101617.34;5053259;28;45436;-70
2023/07/17 11:12:43;;;;;;;;;1.00;0.00;;;;;23.82;41.83;101628.56;5029052;28;45445;-70
2023/07/17 11:15:16;;;;;;;;;2.00;0.75;;;;;23.83;41.64;101633.06;5057772;28;45451;-70
2023/07/17 11:17:42;;;;;;;;;1.00;1.00;;;;;23.82;41.68;101613.13;5036749;28;46628;-70
2023/07/17 11:20:08;;;;;;;;;0.00;0.00;;;;;23.94;40.92;101629.50;5058159;28;45407;-70